Time;durP1;ratioP1;P1;durP2;ratioP2;P2;SDS_P1;SDS_P2;PMS_P1;PMS_P2;Temp;Humidity;BMP_temperature;BMP_pressure;BME280_temperature;BME280_humidity;BME280_pressure;Samples;Min_cycle;Max_cycle;Signal;HPM_P1;HPM_P2
2021/09/12 00:01:17;;;;;;;30.90;23.92;;;;;;;12.20;79.93;99604.71;1734571;82;21615;-68
2021/09/12 00:03:44;;;;;;;29.40;22.42;;;;;;;12.18;79.97;99599.28;1735697;82;21557;-68
2021/09/12 00:06:10;;;;;;;29.27;23.00;;;;;;;12.19;79.83;99608.53;1748921;82;21616;-68
2021/09/12 00:08:37;;;;;;;29.52;23.42;;;;;;;12.21;79.77;99601.44;1752337;82;21079;-68
2021/09/12 00:11:05;;;;;;;33.63;25.60;;;;;;;12.17;79.79;99606.65;1740140;82;21145;-68
2021/09/12 00:13:33;;;;;;;30.12;24.15;;;;;;;12.11;80.04;99602.34;1741700;82;21047;-68
2021/09/12 00:16:01;;;;;;;29.80;24.60;;;;;;;12.12;80.05;99599.86;1724664;82;21051;-68
2021/09/12 00:18:27;;;;;;;28.35;22.93;;;;;;;12.15;79.96;99595.77;1705176;82;21058;-68
2021/09/12 00:20:55;;;;;;;33.67;24.47;;;;;;;12.17;79.98;99603.92;1750271;82;21039;-68
2021/09/12 00:23:22;;;;;;;29.87;23.92;;;;;;;12.16;80.10;99597.37;1752098;82;21019;-68
2021/09/12 00:25:48;;;;;;;29.90;23.05;;;;;;;12.10;80.29;99603.43;1740568;82;21040;-69
2021/09/12 00:28:14;;;;;;;31.05;23.47;;;;;;;12.10;80.34;99602.06;1735540;82;21010;-67
2021/09/12 00:30:42;;;;;;;31.87;23.00;;;;;;;12.13;80.18;99604.77;1752463;81;21102;-67
2021/09/12 00:33:09;;;;;;;29.37;24.45;;;;;;;12.10;80.15;99608.07;1735181;80;21054;-67
2021/09/12 00:35:36;;;;;;;35.60;25.35;;;;;;;12.03;80.40;99613.03;1688596;83;21118;-68
2021/09/12 00:38:02;;;;;;;;;;;;;;;11.95;80.74;99611.72;1689661;83;21077;-68
2021/09/12 00:40:28;;;;;;;32.80;24.52;;;;;;;11.90;80.81;99610.41;1707998;83;20138;-67
2021/09/12 00:42:55;;;;;;;29.98;23.73;;;;;;;11.82;81.04;99611.00;1687907;84;21580;-68
2021/09/12 00:45:21;;;;;;;28.45;23.50;;;;;;;11.78;81.28;99609.93;1667403;85;21600;-68
2021/09/12 00:47:47;;;;;;;30.00;23.98;;;;;;;11.77;81.48;99612.38;1686036;84;21023;-68
2021/09/12 00:50:15;;;;;;;32.80;25.43;;;;;;;11.78;81.69;99611.30;1681340;85;21574;-67
2021/09/12 00:52:45;;;;;;;29.00;24.15;;;;;;;11.77;81.86;99609.66;1697710;83;21582;-67
2021/09/12 00:55:13;;;;;;;29.40;23.50;;;;;;;11.75;82.16;99609.14;1688682;85;21138;-68
2021/09/12 00:57:43;;;;;;;33.33;25.43;;;;;;;11.78;82.26;99612.11;1667586;85;21082;-67
2021/09/12 01:00:10;;;;;;;29.60;24.72;;;;;;;11.84;82.14;99607.42;1670688;83;21223;-68
2021/09/12 01:02:38;;;;;;;30.55;24.40;;;;;;;11.83;82.09;99609.34;1689120;84;21063;-67
2021/09/12 01:05:08;;;;;;;27.32;22.98;;;;;;;11.79;82.25;99610.20;1651923;85;21047;-67
2021/09/12 01:07:37;;;;;;;29.42;23.35;;;;;;;11.83;82.37;99607.19;1655777;84;21719;-68
2021/09/12 01:10:04;;;;;;;32.05;24.32;;;;;;;11.92;81.82;99606.84;1667881;86;21027;-67
2021/09/12 01:12:31;;;;;;;32.30;25.43;;;;;;;11.92;81.69;99606.30;1663108;85;21055;-68
2021/09/12 01:14:59;;;;;;;31.75;25.20;;;;;;;11.81;81.81;99608.81;1619189;87;21204;-68
2021/09/12 01:17:30;;;;;;;31.23;24.85;;;;;;;11.77;81.96;99606.93;1657079;86;21041;-68
2021/09/12 01:19:58;;;;;;;32.08;23.12;;;;;;;11.79;81.77;99608.84;1682722;83;21223;-68
2021/09/12 01:22:25;;;;;;;27.30;23.38;;;;;;;11.77;81.77;99612.38;1678350;85;21079;-67
2021/09/12 01:24:52;;;;;;;27.25;21.65;;;;;;;11.74;81.87;99617.05;1701490;84;21095;-67
2021/09/12 01:27:18;;;;;;;29.75;21.85;;;;;;;11.78;81.79;99614.84;1675617;85;21016;-68
2021/09/12 01:29:44;;;;;;;25.12;21.37;;;;;;;11.87;81.49;99607.67;1644147;86;21116;-68
2021/09/12 01:32:12;;;;;;;29.00;22.58;;;;;;;11.88;81.31;99605.23;1652453;86;21084;-67
2021/09/12 01:34:38;;;;;;;27.37;23.32;;;;;;;11.85;81.34;99609.06;1702146;83;21056;-68
2021/09/12 01:37:05;;;;;;;29.77;22.80;;;;;;;11.80;81.31;99607.72;1673618;85;21058;-68
2021/09/12 01:39:31;;;;;;;29.30;21.90;;;;;;;11.80;81.16;99609.91;1648615;86;21074;-69
2021/09/12 01:41:59;;;;;;;29.95;22.58;;;;;;;11.84;80.86;99606.88;1666128;86;20999;-68
2021/09/12 01:44:27;;;;;;;30.00;22.65;;;;;;;11.80;80.76;99608.55;1678651;85;21095;-68
2021/09/12 01:46:54;;;;;;;26.27;22.55;;;;;;;11.72;80.93;99601.52;1675000;84;21086;-68
2021/09/12 01:49:21;;;;;;;27.37;21.57;;;;;;;11.65;81.04;99602.36;1661564;86;21744;-68
2021/09/12 01:51:47;;;;;;;25.43;20.43;;;;;;;11.63;80.96;99601.80;1658014;86;21023;-68
2021/09/12 01:54:13;;;;;;;27.70;21.07;;;;;;;11.67;80.87;99596.06;1707582;82;21055;-68
2021/09/12 01:56:40;;;;;;;27.07;20.02;;;;;;;11.66;80.89;99602.60;1736080;82;21058;-68
2021/09/12 01:59:06;;;;;;;27.48;21.62;;;;;;;11.58;81.09;99602.67;1714265;82;21055;-68
2021/09/12 02:01:32;;;;;;;28.42;22.00;;;;;;;11.51;81.31;99604.89;1714796;82;20976;-68
2021/09/12 02:03:58;;;;;;;28.57;22.60;;;;;;;11.52;81.30;99602.95;1712187;84;21090;-69
2021/09/12 02:06:26;;;;;;;29.02;23.18;;;;;;;11.47;81.41;99606.55;1711949;82;21577;-68
2021/09/12 02:08:53;;;;;;;28.02;22.37;;;;;;;11.37;81.81;99607.39;1725179;82;21506;-68
2021/09/12 02:11:20;;;;;;;27.27;21.15;;;;;;;11.34;82.04;99595.69;1723774;82;20983;-68
2021/09/12 02:13:47;;;;;;;25.72;21.87;;;;;;;11.42;81.92;99599.74;1721611;82;21015;-68
2021/09/12 02:16:14;;;;;;;28.23;23.00;;;;;;;11.43;81.85;99601.38;1712034;84;21122;-69
2021/09/12 02:18:41;;;;;;;31.95;23.12;;;;;;;11.40;81.93;99593.23;1712825;82;21083;-69
2021/09/12 02:21:10;;;;;;;28.65;23.05;;;;;;;11.38;82.01;99599.48;1731114;82;21126;-69
2021/09/12 02:23:36;;;;;;;29.87;22.52;;;;;;;11.39;81.98;99597.03;1712363;84;21087;-68
2021/09/12 02:26:04;;;;;;;27.70;22.67;;;;;;;11.43;81.76;99606.29;1712224;82;21067;-68
2021/09/12 02:28:31;;;;;;;30.02;23.15;;;;;;;11.43;81.75;99593.20;1718682;82;21063;-68
2021/09/12 02:30:57;;;;;;;32.03;23.73;;;;;;;11.35;81.84;99594.60;1720040;82;21118;-68
2021/09/12 02:33:23;;;;;;;29.45;23.52;;;;;;;11.33;81.90;99591.89;1714859;82;21047;-68
2021/09/12 02:35:49;;;;;;;29.95;22.25;;;;;;;11.33;81.96;99598.16;1729009;82;21066;-69
2021/09/12 02:38:16;;;;;;;27.73;21.07;;;;;;;11.32;82.13;99598.44;1712432;84;21098;-68
2021/09/12 02:40:42;;;;;;;28.20;21.42;;;;;;;11.27;82.21;99591.63;1714686;82;21090;-68
2021/09/12 02:43:10;;;;;;;29.07;21.25;;;;;;;11.25;82.35;99591.93;1713315;82;21031;-68
2021/09/12 02:45:36;;;;;;;28.07;19.82;;;;;;;11.29;82.34;99592.19;1733862;82;21068;-68
2021/09/12 02:48:04;;;;;;;23.02;19.67;;;;;;;11.36;82.09;99586.70;1712017;82;21414;-68
2021/09/12 02:50:30;;;;;;;25.00;19.60;;;;;;;11.42;81.93;99586.94;1703300;82;21128;-69
2021/09/12 02:52:57;;;;;;;26.25;21.68;;;;;;;11.39;81.83;99577.96;1744159;81;21098;-68
2021/09/12 02:55:23;;;;;;;24.07;20.80;;;;;;;11.32;82.01;99585.62;1749465;82;21019;-68
2021/09/12 02:57:49;;;;;;;24.27;18.70;;;;;;;11.33;81.98;99582.36;1740532;82;21019;-68
2021/09/12 03:00:17;;;;;;;29.05;19.77;;;;;;;11.38;81.78;99579.59;1739445;80;21106;-68
2021/09/12 03:02:44;;;;;;;;;;;;;;;11.36;81.74;99585.88;1702317;82;21094;-68
2021/09/12 03:05:10;;;;;;;25.00;20.12;;;;;;;11.31;81.91;99594.89;1737328;82;20102;-68
2021/09/12 03:07:37;;;;;;;24.43;20.43;;;;;;;11.20;82.20;99588.39;1750857;82;21523;-68
2021/09/12 03:10:06;;;;;;;24.20;19.52;;;;;;;11.21;82.14;99592.22;1723722;82;21026;-69
2021/09/12 03:12:34;;;;;;;23.27;18.77;;;;;;;11.27;81.87;99587.55;1725603;82;21027;-69
2021/09/12 03:15:00;;;;;;;24.65;19.75;;;;;;;11.26;81.81;99592.20;1746481;82;21011;-69
2021/09/12 03:17:28;;;;;;;24.65;20.25;;;;;;;11.20;81.96;99585.12;1751761;82;21573;-68
2021/09/12 03:19:54;;;;;;;22.00;18.50;;;;;;;11.12;82.16;99587.09;1726355;82;21593;-69
2021/09/12 03:22:21;;;;;;;;;;;;;;;11.15;82.21;99582.98;1727227;82;21596;-68
2021/09/12 03:24:49;;;;;;;22.27;18.07;;;;;;;11.21;81.95;99577.77;1733202;80;20134;-69
2021/09/12 03:27:17;;;;;;;21.50;18.40;;;;;;;11.19;81.97;99583.52;1739309;81;20999;-68
2021/09/12 03:29:43;;;;;;;25.17;19.70;;;;;;;11.15;82.02;99582.44;1736445;82;21063;-68
2021/09/12 03:32:09;;;;;;;22.50;19.73;;;;;;;11.08;82.24;99583.29;1688599;85;21062;-68
2021/09/12 03:34:35;;;;;;;22.15;18.40;;;;;;;11.02;82.50;99576.20;1696764;84;21549;-68
2021/09/12 03:37:02;;;;;;;23.20;18.10;;;;;;;11.06;82.53;99581.91;1678190;85;21043;-68
2021/09/12 03:39:29;;;;;;;21.48;17.70;;;;;;;11.13;82.30;99579.16;1695455;84;21637;-67
2021/09/12 03:41:55;;;;;;;20.40;18.02;;;;;;;11.17;82.14;99584.88;1685455;83;21062;-69
2021/09/12 03:44:21;;;;;;;23.00;18.42;;;;;;;11.15;82.14;99587.89;1666431;85;21065;-68
2021/09/12 03:46:48;;;;;;;23.47;18.20;;;;;;;11.10;82.42;99582.99;1671358;85;20994;-68
2021/09/12 03:49:14;;;;;;;22.05;18.25;;;;;;;;;;1676423;84;21604;-68
2021/09/12 03:51:41;;;;;;;22.67;18.50;;;;;;;11.17;82.45;99584.33;1688691;84;21023;-69
2021/09/12 03:54:07;;;;;;;;;;;;;;;11.21;82.47;99585.95;1671397;83;21065;-68
2021/09/12 03:56:33;;;;;;;27.07;19.80;;;;;;;11.20;82.65;99583.77;1681469;85;20131;-69
2021/09/12 03:59:00;;;;;;;22.30;18.25;;;;;;;11.15;83.01;99586.53;1730040;81;21573;-68
2021/09/12 04:01:27;;;;;;;22.20;18.17;;;;;;;11.27;83.02;99586.18;1743841;81;21019;-69
2021/09/12 04:03:54;;;;;;;24.30;18.77;;;;;;;11.43;82.67;99590.48;1718274;82;21015;-68
2021/09/12 04:06:20;;;;;;;23.00;19.00;;;;;;;11.53;82.49;99591.78;1736380;82;21018;-68
2021/09/12 04:08:46;;;;;;;;;;;;;;;11.57;82.58;99594.76;1749005;82;21486;-69
2021/09/12 04:11:14;;;;;;;;;;;;;;;11.59;82.72;99587.92;1730355;82;20141;-68
2021/09/12 04:13:40;;;;;;;25.35;19.67;;;;;;;11.56;82.98;99593.94;1728187;82;20113;-68
2021/09/12 04:16:08;;;;;;;20.97;18.73;;;;;;;11.65;83.06;99588.72;1732146;82;21059;-68
2021/09/12 04:18:34;;;;;;;27.45;21.15;;;;;;;11.83;82.74;99588.87;1717976;82;21027;-68
2021/09/12 04:21:02;;;;;;;26.07;21.62;;;;;;;11.95;82.57;99588.53;1718012;83;21043;-67
2021/09/12 04:23:30;;;;;;;27.82;20.68;;;;;;;11.97;82.69;99594.54;1717593;83;21035;-67
2021/09/12 04:25:56;;;;;;;25.20;21.05;;;;;;;12.04;82.72;99594.21;1725473;82;21055;-67
2021/09/12 04:28:22;;;;;;;;;;;;;;;12.17;82.45;99590.83;1722147;82;21078;-68
2021/09/12 04:30:49;;;;;;;28.25;21.95;;;;;;;12.24;82.48;99591.31;1729446;82;20134;-68
2021/09/12 04:33:15;;;;;;;;;;;;;;;12.22;82.75;99593.52;1720573;82;21142;-68
2021/09/12 04:35:41;;;;;;;27.48;20.20;;;;;;;12.34;82.59;99590.67;1720833;82;20109;-68
2021/09/12 04:38:07;;;;;;;24.12;20.32;;;;;;;12.46;82.38;99592.48;1747279;82;21059;-68
2021/09/12 04:41:15;;;;;;;27.17;21.87;;;;;;;12.60;82.39;99590.44;1806402;79;23133;-68
2021/09/12 04:43:41;;;;;;;;;;;;;;;12.62;82.33;99581.39;1774945;80;20979;-68
2021/09/12 04:46:07;;;;;;;27.13;22.20;;;;;;;12.77;82.06;99584.79;1774866;80;20121;-68
2021/09/12 04:48:34;;;;;;;27.05;22.62;;;;;;;12.82;81.84;99579.83;1782578;80;21518;-68
2021/09/12 04:51:00;;;;;;;35.23;25.45;;;;;;;12.86;81.78;99584.95;1782393;80;21471;-68
2021/09/12 04:53:26;;;;;;;31.25;25.35;;;;;;;12.98;81.51;99577.99;1778892;80;21487;-68
2021/09/12 04:55:53;;;;;;;36.17;28.12;;;;;;;13.15;81.01;99572.62;1777578;80;21047;-69
2021/09/12 04:58:19;;;;;;;35.43;26.48;;;;;;;13.22;80.81;99568.43;1778136;80;20987;-69
2021/09/12 05:00:45;;;;;;;36.63;27.58;;;;;;;13.32;80.68;99573.76;1756623;80;21003;-68
2021/09/12 05:03:13;;;;;;;36.80;27.45;;;;;;;13.50;80.34;99568.05;1770865;80;21466;-68
2021/09/12 05:05:41;;;;;;;35.23;27.80;;;;;;;13.70;79.97;99565.59;1704612;84;21066;-68
2021/09/12 05:08:07;;;;;;;32.28;25.62;;;;;;;13.80;79.82;99564.89;1732889;83;21038;-69
2021/09/12 05:10:33;;;;;;;;;;;;;;;14.00;79.84;99561.55;1730112;83;21055;-68
2021/09/12 05:12:59;;;;;;;28.35;22.40;;;;;;;14.40;79.49;99561.73;1730441;83;20172;-71
2021/09/12 05:15:26;;;;;;;25.37;20.75;;;;;;;14.76;79.07;99560.52;1728029;83;21027;-69
2021/09/12 05:17:52;;;;;;;21.27;16.65;;;;;;;15.17;78.75;99560.51;1675826;85;21007;-69
2021/09/12 05:20:20;;;;;;;19.67;16.40;;;;;;;15.54;76.97;99551.25;1718252;83;21090;-70
2021/09/12 05:22:46;;;;;;;26.68;18.70;;;;;;;15.91;75.41;99555.02;1729497;83;21038;-69
2021/09/12 05:25:13;;;;;;;;;;;;;;;16.33;74.41;99556.45;1731470;83;21043;-70
2021/09/12 05:27:39;;;;;;;21.85;17.07;;;;;;;16.74;73.38;99555.41;1707956;83;20131;-70
2021/09/12 05:30:08;;;;;;;21.48;16.23;;;;;;;17.05;71.65;99552.62;1719021;83;21150;-69
2021/09/12 05:32:34;;;;;;;20.17;17.75;;;;;;;17.36;70.56;99547.28;1721584;83;21015;-69
2021/09/12 05:35:02;;;;;;;20.55;16.00;;;;;;;17.73;69.55;99550.59;1723151;83;21608;-69
2021/09/12 05:37:28;;;;;;;19.90;16.57;;;;;;;18.08;68.38;99546.70;1723518;83;21006;-69
2021/09/12 05:39:54;;;;;;;;;;;;;;;18.46;66.96;99554.27;1717948;83;21082;-69
2021/09/12 05:42:21;;;;;;;16.95;13.68;;;;;;;18.75;66.36;99546.89;1729464;83;20142;-70
2021/09/12 05:44:49;;;;;;;18.00;13.93;;;;;;;19.05;65.66;99551.89;1687981;85;21107;-69
2021/09/12 05:47:15;;;;;;;16.30;12.73;;;;;;;19.42;63.95;99546.66;1719073;82;21102;-69
2021/09/12 05:49:43;;;;;;;15.35;13.45;;;;;;;19.64;62.30;99545.78;1703179;82;21522;-69
2021/09/12 05:52:10;;;;;;;18.77;12.55;;;;;;;19.82;61.69;99550.60;1690991;83;21020;-69
2021/09/12 05:54:36;;;;;;;16.65;12.05;;;;;;;19.95;61.41;99552.27;1710960;84;21076;-69
2021/09/12 05:57:04;;;;;;;14.18;11.75;;;;;;;20.20;61.07;99549.03;1682289;84;20961;-69
2021/09/12 05:59:31;;;;;;;14.58;11.43;;;;;;;20.43;60.19;99548.94;1763236;81;21550;-69
2021/09/12 06:01:57;;;;;;;14.05;11.83;;;;;;;20.69;59.68;99550.04;1765801;81;21526;-69
2021/09/12 06:04:24;;;;;;;15.08;11.45;;;;;;;20.94;58.77;99550.27;1767705;81;21585;-70
2021/09/12 06:06:50;;;;;;;13.60;10.85;;;;;;;21.17;58.40;99548.72;1768031;81;21542;-69
2021/09/12 06:09:17;;;;;;;12.07;9.98;;;;;;;21.33;57.31;99551.00;1755199;81;21072;-69
2021/09/12 06:11:43;;;;;;;12.18;10.28;;;;;;;21.45;57.17;99556.30;1756943;81;20996;-68
2021/09/12 06:14:10;;;;;;;13.25;9.75;;;;;;;21.57;55.96;99552.14;1760532;81;21093;-69
2021/09/12 06:16:37;;;;;;;11.63;8.70;;;;;;;21.70;56.29;99555.11;1758147;81;21099;-69
2021/09/12 06:19:04;;;;;;;11.18;8.40;;;;;;;21.82;54.77;99550.94;1764505;81;20987;-69
2021/09/12 06:21:32;;;;;;;8.90;7.60;;;;;;;21.76;53.87;99552.31;1763846;81;21534;-69
2021/09/12 06:24:00;;;;;;;11.15;8.13;;;;;;;21.75;53.75;99545.96;1768114;81;21545;-68
2021/09/12 06:26:27;;;;;;;10.00;8.28;;;;;;;21.79;53.42;99546.07;1766921;81;21608;-69
2021/09/12 06:28:54;;;;;;;10.60;8.65;;;;;;;21.95;53.78;99553.11;1773573;81;21007;-68
2021/09/12 06:31:20;;;;;;;9.58;8.38;;;;;;;22.19;51.74;99553.83;1765684;80;21059;-69
2021/09/12 06:33:46;;;;;;;10.65;7.83;;;;;;;22.19;51.74;99553.83;1760846;81;20995;-70
2021/09/12 06:36:15;;;;;;;8.78;7.45;;;;;;;22.23;50.48;99554.73;1766695;81;21070;-70
2021/09/12 06:38:44;;;;;;;13.22;8.25;;;;;;;22.23;50.48;99554.73;1768902;81;21071;-69
2021/09/12 06:41:10;;;;;;;8.75;7.08;;;;;;;22.27;51.44;99554.26;1761301;81;21021;-69
2021/09/12 06:43:38;;;;;;;9.25;7.85;;;;;;;22.27;51.44;99554.26;1730586;81;21040;-69
2021/09/12 06:46:04;;;;;;;11.88;8.40;;;;;;;22.42;50.30;99549.91;1739442;81;21603;-69
2021/09/12 06:48:32;;;;;;;11.65;8.55;;;;;;;22.58;49.48;99562.41;1758261;81;20944;-70
2021/09/12 06:50:58;;;;;;;12.25;8.10;;;;;;;22.76;48.51;99558.98;1769908;81;21071;-69
2021/09/12 06:53:25;;;;;;;9.83;8.00;;;;;;;22.89;48.17;99556.91;1762296;81;21494;-70
2021/09/12 06:55:52;;;;;;;10.82;8.45;;;;;;;22.97;48.21;99555.94;1770607;81;21075;-69
2021/09/12 06:58:19;;;;;;;10.18;8.73;;;;;;;23.04;47.42;99562.25;1772578;81;21012;-70
2021/09/12 07:00:46;;;;;;;9.20;8.10;;;;;;;23.02;47.01;99558.45;1755803;81;21032;-70
2021/09/12 07:03:12;;;;;;;9.58;8.20;;;;;;;23.00;47.20;99559.95;1690354;84;20960;-70
2021/09/12 07:05:39;;;;;;;11.30;8.68;;;;;;;22.94;47.25;99563.59;1708085;83;21106;-70
2021/09/12 07:08:05;;;;;;;9.35;7.85;;;;;;;23.00;47.58;99560.77;1719981;83;21007;-70
2021/09/12 07:10:31;;;;;;;10.50;8.70;;;;;;;23.16;48.00;99562.97;1709160;84;21051;-71
2021/09/12 07:12:57;;;;;;;11.10;8.45;;;;;;;23.28;47.25;99568.41;1773170;81;21554;-72
2021/09/12 07:15:24;;;;;;;10.50;8.18;;;;;;;23.40;46.57;99570.86;1770214;81;21028;-71
2021/09/12 07:17:50;;;;;;;9.70;8.00;;;;;;;23.48;47.59;99566.55;1740165;81;21485;-71
2021/09/12 07:20:17;;;;;;;11.38;8.05;;;;;;;23.67;46.51;99565.18;1767140;81;21110;-70
2021/09/12 07:22:46;;;;;;;10.08;7.85;;;;;;;23.78;46.55;99564.84;1758067;81;21932;-70
2021/09/12 07:25:11;;;;;;;10.78;8.30;;;;;;;23.92;46.37;99564.34;1756352;81;21004;-70
2021/09/12 07:27:38;;;;;;;9.90;7.97;;;;;;;24.02;45.76;99558.80;1771789;81;21021;-69
2021/09/12 07:30:06;;;;;;;13.90;8.08;;;;;;;24.10;45.28;99561.93;1764216;81;21063;-70
2021/09/12 07:32:33;;;;;;;11.08;7.80;;;;;;;24.26;45.30;99563.52;1771141;81;21002;-70
2021/09/12 07:34:59;;;;;;;11.80;8.13;;;;;;;24.38;44.30;99564.51;1763989;81;21631;-71
2021/09/12 07:37:25;;;;;;;10.13;8.03;;;;;;;24.53;44.93;99567.79;1749985;81;21105;-72
2021/09/12 07:39:52;;;;;;;9.53;7.95;;;;;;;24.64;43.82;99566.02;1755114;81;21035;-71
2021/09/12 07:42:19;;;;;;;11.20;7.72;;;;;;;24.67;44.74;99562.48;1768325;81;20985;-69
2021/09/12 07:44:47;;;;;;;11.35;8.03;;;;;;;24.74;44.06;99567.60;1768027;81;21075;-72
2021/09/12 07:47:13;;;;;;;10.00;8.18;;;;;;;24.81;43.94;99566.92;1768246;81;21004;-72
2021/09/12 07:49:41;;;;;;;10.23;8.58;;;;;;;24.89;44.18;99561.73;1767506;81;21121;-70
2021/09/12 07:52:08;;;;;;;11.57;8.85;;;;;;;24.84;44.17;99570.38;1766815;81;21031;-70
2021/09/12 07:54:34;;;;;;;9.68;8.68;;;;;;;24.90;44.33;99567.53;1768231;81;21068;-70
2021/09/12 07:57:01;;;;;;;10.03;8.20;;;;;;;25.00;44.04;99566.91;1768052;81;21082;-70
2021/09/12 07:59:28;;;;;;;13.60;8.38;;;;;;;25.10;44.57;99568.25;1767089;81;21103;-70
2021/09/12 08:01:55;;;;;;;81.85;71.45;;;;;;;25.24;43.84;99569.30;1744692;81;21517;-70
2021/09/12 08:04:21;;;;;;;14.68;11.50;;;;;;;25.24;43.12;99566.51;1760730;81;21062;-69
2021/09/12 08:06:48;;;;;;;10.90;8.33;;;;;;;25.21;43.58;99568.66;1760464;81;21058;-70
2021/09/12 08:09:15;;;;;;;10.55;8.63;;;;;;;25.22;43.14;99571.63;1763067;81;21542;-70
2021/09/12 08:11:41;;;;;;;10.25;8.10;;;;;;;25.31;44.04;99560.83;1764962;81;21004;-71
2021/09/12 08:14:07;;;;;;;12.58;8.55;;;;;;;25.65;43.30;99565.34;1763459;81;21051;-70
2021/09/12 08:16:34;;;;;;;10.53;8.48;;;;;;;25.79;42.14;99566.95;1760739;81;21431;-70
2021/09/12 08:19:02;;;;;;;8.70;7.42;;;;;;;25.86;41.57;99564.87;1766412;81;21008;-70
2021/09/12 08:21:28;;;;;;;13.53;8.75;;;;;;;25.99;42.05;99566.23;1727755;82;21088;-70
2021/09/12 08:23:55;;;;;;;10.70;8.18;;;;;;;26.17;40.53;99558.34;1767458;81;21451;-70
2021/09/12 08:26:21;;;;;;;9.98;8.40;;;;;;;26.28;40.90;99557.07;1768012;81;21554;-71
2021/09/12 08:28:48;;;;;;;10.78;8.53;;;;;;;26.35;40.43;99551.58;1768464;81;20988;-70
2021/09/12 08:33:47;;;;;;;;;;;;;;;26.54;39.32;99554.75;1804906;79;22115;-71
2021/09/12 08:36:14;;;;;;;9.50;8.15;;;;;;;26.61;39.24;99561.21;1731471;83;20170;-71
2021/09/12 08:38:41;;;;;;;11.12;7.97;;;;;;;26.61;38.72;99557.61;1698363;83;21069;-71
2021/09/12 08:41:08;;;;;;;34.70;26.25;;;;;;;26.68;38.52;99550.12;1698414;83;21058;-70
2021/09/12 08:43:35;;;;;;;11.93;9.15;;;;;;;27.04;38.79;99552.68;1649652;86;21030;-71
2021/09/12 08:46:02;;;;;;;11.15;8.03;;;;;;;27.29;36.69;99547.30;1693067;83;21014;-71
2021/09/12 08:48:28;;;;;;;9.45;6.85;;;;;;;27.34;35.86;99555.33;1695723;84;21090;-71
2021/09/12 08:50:54;;;;;;;8.03;6.65;;;;;;;27.32;35.11;99553.50;1698430;84;21039;-71
2021/09/12 08:53:21;;;;;;;8.00;6.40;;;;;;;27.12;34.18;99561.34;1698159;83;21560;-71
2021/09/12 08:55:47;;;;;;;9.80;7.58;;;;;;;27.11;35.01;99554.14;1698703;84;21694;-71
2021/09/12 08:58:14;;;;;;;8.08;7.00;;;;;;;27.45;34.26;99547.05;1698640;84;21592;-71
2021/09/12 09:00:44;;;;;;;8.55;7.00;;;;;;;27.66;34.41;99552.77;1698370;83;21596;-71
2021/09/12 09:03:10;;;;;;;12.75;7.42;;;;;;;27.66;35.29;99559.17;1696814;83;21030;-69
2021/09/12 09:05:41;;;;;;;10.45;7.20;;;;;;;27.57;35.09;99550.91;1698513;84;21089;-69
2021/09/12 09:08:11;;;;;;;9.25;7.28;;;;;;;27.44;35.57;99542.61;1693537;84;21569;-70
2021/09/12 09:10:48;;;;;;;8.28;7.05;;;;;;;27.46;34.44;99547.23;1693493;85;21055;-69
2021/09/12 09:13:31;;;;;;;10.10;6.55;;;;;;;27.33;34.49;99555.11;1687416;85;21003;-70
2021/09/12 09:16:00;;;;;;;11.80;6.97;;;;;;;27.30;34.67;99542.51;1686551;85;21067;-70
2021/09/12 09:18:36;;;;;;;9.13;6.40;;;;;;;27.52;34.75;99542.31;1685859;85;21093;-69
2021/09/12 09:21:31;;;;;;;11.28;7.47;;;;;;;27.68;34.26;99544.78;1691039;85;21082;-70
2021/09/12 09:24:10;;;;;;;7.97;7.03;;;;;;;27.56;33.46;99539.54;1669915;85;21047;-69
2021/09/12 09:26:43;;;;;;;8.45;6.97;;;;;;;27.38;33.64;99533.80;1686311;85;21000;-70
2021/09/12 09:29:09;;;;;;;11.08;7.62;;;;;;;27.39;34.05;99538.77;1686439;85;21134;-71
2021/09/12 09:31:35;;;;;;;8.38;7.15;;;;;;;27.27;34.19;99535.71;1686509;85;21054;-71
2021/09/12 09:34:17;;;;;;;10.58;7.83;;;;;;;27.10;34.51;99532.19;1669537;85;21067;-70
2021/09/12 09:36:49;;;;;;;10.63;7.35;;;;;;;26.89;34.09;99521.62;1694050;84;21053;-70
2021/09/12 09:39:51;;;;;;;10.82;7.28;;;;;;;26.78;34.20;99526.89;1693855;85;21045;-69
2021/09/12 09:42:35;;;;;;;7.83;6.92;;;;;;;26.76;34.56;99525.06;1683796;85;21074;-70
2021/09/12 09:45:16;;;;;;;10.75;8.05;;;;;;;26.67;35.72;99527.59;1699555;82;21059;-70
2021/09/12 09:47:47;;;;;;;10.70;7.53;;;;;;;26.60;35.58;99521.13;1683585;84;21054;-70
2021/09/12 09:50:29;;;;;;;9.05;7.40;;;;;;;26.58;35.62;99517.91;1717865;83;21106;-70
2021/09/12 09:52:56;;;;;;;9.20;7.37;;;;;;;26.45;34.71;99517.39;1683380;85;21094;-69
2021/09/12 09:55:24;;;;;;;11.85;8.20;;;;;;;26.31;34.61;99522.02;1682579;83;21545;-70
2021/09/12 09:57:52;;;;;;;10.20;7.50;;;;;;;26.12;34.83;99525.16;1717970;83;21070;-69
2021/09/12 10:00:20;;;;;;;9.50;7.55;;;;;;;26.02;35.15;99519.45;1717828;83;21079;-69
2021/09/12 10:02:47;;;;;;;10.48;7.55;;;;;;;25.97;35.53;99526.16;1683238;85;21077;-70
2021/09/12 10:05:14;;;;;;;10.18;7.85;;;;;;;25.87;36.09;99525.44;1718226;82;20995;-69
2021/09/12 10:07:44;;;;;;;12.18;7.75;;;;;;;25.79;35.57;99522.34;1682938;83;21518;-69
2021/09/12 10:10:13;;;;;;;8.98;7.17;;;;;;;25.65;35.56;99521.56;1724661;83;21011;-69
2021/09/12 10:12:51;;;;;;;9.20;7.90;;;;;;;25.50;35.62;99530.89;1683383;85;21047;-69
2021/09/12 10:15:26;;;;;;;9.95;8.15;;;;;;;25.51;36.44;99519.16;1716892;83;21196;-70
2021/09/12 10:17:52;;;;;;;10.43;7.72;;;;;;;25.51;35.54;99524.14;1728863;82;20959;-69
2021/09/12 10:20:24;;;;;;;10.03;8.40;;;;;;;25.50;35.13;99520.33;1737839;82;20983;-69
2021/09/12 10:22:58;;;;;;;8.93;7.97;;;;;;;25.51;35.91;99521.95;1737859;82;21641;-70
2021/09/12 10:25:28;;;;;;;9.48;7.70;;;;;;;25.62;36.74;99520.11;1734766;82;21541;-70
2021/09/12 10:28:05;;;;;;;9.40;7.30;;;;;;;25.80;37.81;99507.22;1713585;82;21062;-70
2021/09/12 10:30:40;;;;;;;8.95;6.97;;;;;;;26.04;37.81;99503.16;1735952;82;21659;-71
2021/09/12 10:33:16;;;;;;;11.15;7.08;;;;;;;26.27;36.69;99501.64;1693320;83;21058;-72
2021/09/12 10:35:50;;;;;;;8.43;7.30;;;;;;;26.39;36.83;99494.41;1725531;82;21043;-70
2021/09/12 10:38:33;;;;;;;8.00;7.20;;;;;;;26.48;36.70;99498.48;1720242;82;21110;-71
2021/09/12 10:41:05;;;;;;;8.88;7.42;;;;;;;26.41;35.81;99493.42;1720101;83;21122;-70
2021/09/12 10:43:46;;;;;;;9.15;7.17;;;;;;;26.37;36.20;99491.98;1723137;82;21629;-71
2021/09/12 10:46:18;;;;;;;8.70;7.15;;;;;;;26.35;35.46;99487.98;1719782;82;21406;-70
2021/09/12 10:49:03;;;;;;;8.30;7.17;;;;;;;26.25;35.88;99497.85;1683670;83;21553;-71
2021/09/12 10:51:32;;;;;;;8.50;7.30;;;;;;;26.18;36.44;99492.19;1720724;83;21065;-74
2021/09/12 10:54:02;;;;;;;7.97;6.85;;;;;;;26.15;36.65;99490.92;1675632;83;21046;-69
2021/09/12 10:56:29;;;;;;;8.63;7.55;;;;;;;26.25;36.08;99492.86;1726272;82;21494;-69
2021/09/12 10:59:09;;;;;;;8.93;6.83;;;;;;;26.34;36.03;99484.97;1681907;83;21486;-69
2021/09/12 11:01:45;;;;;;;8.90;7.33;;;;;;;26.41;35.50;99483.65;1721146;83;21378;-69
2021/09/12 11:04:13;;;;;;;;;;;;;;;26.37;35.37;99478.62;1726976;83;21026;-70
2021/09/12 11:06:44;;;;;;;9.05;6.58;;;;;;;26.36;35.75;99477.81;1720593;82;20372;-68
2021/09/12 11:09:19;;;;;;;10.72;7.05;;;;;;;26.34;35.86;99484.38;1717958;82;21110;-69
2021/09/12 11:11:47;;;;;;;10.80;7.62;;;;;;;26.34;36.10;99483.58;1682923;83;21050;-69
2021/09/12 11:14:15;;;;;;;11.15;6.92;;;;;;;26.32;35.03;99481.19;1681312;83;21631;-69
2021/09/12 11:16:42;;;;;;;9.55;7.55;;;;;;;26.23;34.72;99483.47;1730220;82;20982;-70
2021/09/12 11:19:09;;;;;;;11.68;7.05;;;;;;;26.25;34.53;99477.52;1714952;82;21094;-69
2021/09/12 11:21:51;;;;;;;9.10;6.47;;;;;;;26.32;34.96;99478.98;1716583;83;21077;-69
2021/09/12 11:24:24;;;;;;;9.10;7.17;;;;;;;26.41;34.79;99478.06;1714829;82;21324;-69
2021/09/12 11:26:53;;;;;;;8.83;7.40;;;;;;;26.38;34.99;99473.25;1719047;83;20999;-69
2021/09/12 11:29:27;;;;;;;8.83;7.28;;;;;;;26.37;36.38;99467.45;1683056;84;21067;-69
2021/09/12 11:32:09;;;;;;;10.72;6.90;;;;;;;26.47;34.54;99459.78;1682714;83;21011;-69
2021/09/12 11:34:37;;;;;;;11.97;7.05;;;;;;;26.46;34.86;99459.00;1726759;82;21055;-69